Time;durP1;ratioP1;P1;durP2;ratioP2;P2;SDS_P1;SDS_P2;PMS_P1;PMS_P2;Temp;Humidity;BMP_temperature;BMP_pressure;BME280_temperature;BME280_humidity;BME280_pressure;Samples;Min_cycle;Max_cycle;Signal;HPM_P1;HPM_P2
2021/12/08 00:02:11;;;;;;;2.17;1.93;;;;;;;;;;5040170;28;20541;-47
2021/12/08 00:04:37;;;;;;;1.90;1.47;;;;;;;;;;5029126;28;20712;-49
2021/12/08 00:07:04;;;;;;;3.30;2.03;;;;;;;;;;5041377;28;20423;-49
2021/12/08 00:09:49;;;;;;;4.33;1.70;;;;;;;;;;5027246;28;20450;-49
2021/12/08 00:15:01;;;;;;;1.20;1.03;;;;;;;;;;5015463;28;20966;-49
2021/12/08 00:17:27;;;;;;;2.40;1.90;;;;;;;;;;5041587;28;20447;-49
2021/12/08 00:19:53;;;;;;;3.50;1.50;;;;;;;;;;5034603;28;20445;-48
2021/12/08 00:22:20;;;;;;;2.07;1.63;;;;;;;;;;5039854;28;20450;-48
2021/12/08 00:24:46;;;;;;;2.60;1.70;;;;;;;;;;5030584;28;20446;-48
2021/12/08 00:27:12;;;;;;;4.77;2.17;;;;;;;;;;5040977;28;20442;-47
2021/12/08 00:29:44;;;;;;;1.60;1.50;;;;;;;;;;5027865;28;20427;-49
2021/12/08 00:32:12;;;;;;;2.97;1.60;;;;;;;;;;5038092;28;20541;-48
2021/12/08 00:34:39;;;;;;;1.77;1.67;;;;;;;;;;5032490;28;20447;-48
2021/12/08 00:37:05;;;;;;;3.07;1.90;;;;;;;;;;5043702;28;20819;-50
2021/12/08 00:39:33;;;;;;;8.13;2.23;;;;;;;;;;5035288;28;20507;-49
2021/12/08 00:41:59;;;;;;;2.57;1.80;;;;;;;;;;5037413;28;20607;-48
2021/12/08 00:44:25;;;;;;;2.37;1.80;;;;;;;;;;5025586;28;20482;-49
2021/12/08 00:46:51;;;;;;;2.07;1.77;;;;;;;;;;5041502;28;20438;-49
2021/12/08 00:49:17;;;;;;;2.50;2.00;;;;;;;;;;5028275;28;20435;-49
2021/12/08 00:51:43;;;;;;;4.43;2.10;;;;;;;;;;5039304;28;20439;-49
2021/12/08 00:54:11;;;;;;;2.20;1.90;;;;;;;;;;5018175;28;20469;-48
2021/12/08 00:56:37;;;;;;;2.53;1.80;;;;;;;;;;5040135;28;20515;-48
2021/12/08 00:59:03;;;;;;;4.33;1.70;;;;;;;;;;5019526;28;20451;-49
2021/12/08 01:01:29;;;;;;;2.03;1.40;;;;;;;;;;5038288;28;20434;-48
2021/12/08 01:03:55;;;;;;;3.00;1.73;;;;;;;;;;5019240;28;20474;-48
2021/12/08 01:06:21;;;;;;;2.03;1.43;;;;;;;;;;5038142;28;20441;-49
2021/12/08 01:08:48;;;;;;;5.53;1.27;;;;;;;;;;5021858;28;20441;-49
2021/12/08 01:11:15;;;;;;;2.30;1.43;;;;;;;;;;5041244;28;20516;-49
2021/12/08 01:13:46;;;;;;;3.10;2.10;;;;;;;;;;5021667;28;20434;-49
2021/12/08 01:16:13;;;;;;;2.23;2.03;;;;;;;;;;5038148;28;20443;-48
2021/12/08 01:18:39;;;;;;;5.33;1.90;;;;;;;;;;5017461;28;20440;-48
2021/12/08 01:21:23;;;;;;;4.77;2.10;;;;;;;;;;5039002;28;20441;-49
2021/12/08 01:23:50;;;;;;;2.10;1.80;;;;;;;;;;5004090;28;20972;-48
2021/12/08 01:26:16;;;;;;;2.53;1.80;;;;;;;;;;5040215;28;20487;-49
2021/12/08 01:28:43;;;;;;;2.00;1.50;;;;;;;;;;5038433;28;20462;-48
2021/12/08 01:31:09;;;;;;;5.43;2.00;;;;;;;;;;5041403;28;20462;-47
2021/12/08 01:33:36;;;;;;;4.30;2.20;;;;;;;;;;5022790;28;20451;-48
2021/12/08 01:36:03;;;;;;;2.80;1.90;;;;;;;;;;5041801;28;20502;-48
2021/12/08 01:38:29;;;;;;;2.37;1.93;;;;;;;;;;5032718;28;20444;-48
2021/12/08 01:40:56;;;;;;;2.07;1.70;;;;;;;;;;5041726;28;20453;-48
2021/12/08 01:43:27;;;;;;;2.47;2.20;;;;;;;;;;5016543;28;21210;-47
2021/12/08 01:46:14;;;;;;;1.87;1.40;;;;;;;;;;5044268;28;20438;-49
2021/12/08 01:48:41;;;;;;;2.30;1.80;;;;;;;;;;5031298;28;20434;-49
2021/12/08 01:51:11;;;;;;;3.00;1.63;;;;;;;;;;5040385;28;20447;-50
2021/12/08 01:53:39;;;;;;;2.17;1.97;;;;;;;;;;5020881;28;20449;-48
2021/12/08 01:56:09;;;;;;;1.83;1.40;;;;;;;;;;5047315;28;20462;-47
2021/12/08 01:58:36;;;;;;;5.33;1.80;;;;;;;;;;5028380;28;20477;-49
2021/12/08 02:01:04;;;;;;;3.20;1.90;;;;;;;;;;5041975;28;20438;-47
2021/12/08 02:03:32;;;;;;;1.97;1.40;;;;;;;;;;5032680;28;20470;-49
2021/12/08 02:06:03;;;;;;;2.60;2.40;;;;;;;;;;5059939;28;20431;-48
2021/12/08 02:08:33;;;;;;;2.50;1.67;;;;;;;;;;5039030;28;21246;-49
2021/12/08 02:11:00;;;;;;;2.13;1.70;;;;;;;;;;5044429;28;20462;-48
2021/12/08 02:13:30;;;;;;;1.73;1.53;;;;;;;;;;5026344;28;20865;-49
2021/12/08 02:16:04;;;;;;;2.27;1.60;;;;;;;;;;5041474;28;20917;-49
2021/12/08 02:18:30;;;;;;;2.10;1.90;;;;;;;;;;5050890;28;20461;-48
2021/12/08 02:20:58;;;;;;;3.00;2.20;;;;;;;;;;5042726;28;20441;-49
2021/12/08 02:23:25;;;;;;;2.50;1.50;;;;;;;;;;5017217;28;20471;-47
2021/12/08 02:25:51;;;;;;;4.57;1.73;;;;;;;;;;5043275;28;20970;-49
2021/12/08 02:28:17;;;;;;;4.67;2.00;;;;;;;;;;5006589;28;20438;-48
2021/12/08 02:30:56;;;;;;;3.20;1.73;;;;;;;;;;5060727;28;20438;-48
2021/12/08 02:47:16;;;;;;;5.60;1.70;;;;;;;;;;5045240;28;20430;-48
2021/12/08 02:49:43;;;;;;;1.67;1.33;;;;;;;;;;5034577;28;20523;-48
2021/12/08 02:52:11;;;;;;;1.63;1.40;;;;;;;;;;5063108;28;20521;-48
2021/12/08 02:54:37;;;;;;;2.60;1.57;;;;;;;;;;5015213;28;20430;-47
2021/12/08 02:57:04;;;;;;;2.67;2.07;;;;;;;;;;5043336;28;21017;-48
2021/12/08 02:59:30;;;;;;;2.17;1.97;;;;;;;;;;5049155;28;20478;-49
2021/12/08 03:01:56;;;;;;;5.23;2.60;;;;;;;;;;5057022;28;20470;-47
2021/12/08 03:04:22;;;;;;;2.03;1.57;;;;;;;;;;5026567;28;20483;-49
2021/12/08 03:06:52;;;;;;;2.20;2.00;;;;;;;;;;5028325;28;20500;-50
2021/12/08 03:09:25;;;;;;;2.57;1.63;;;;;;;;;;5040837;28;20525;-50
2021/12/08 03:11:52;;;;;;;2.20;1.97;;;;;;;;;;5039833;28;20438;-49
2021/12/08 03:14:18;;;;;;;2.10;1.90;;;;;;;;;;5040041;28;20423;-49
2021/12/08 03:16:55;;;;;;;3.10;2.00;;;;;;;;;;5025949;28;20909;-50
2021/12/08 03:19:25;;;;;;;3.33;2.17;;;;;;;;;;5031233;28;20470;-49
2021/12/08 03:21:58;;;;;;;2.27;2.00;;;;;;;;;;5043048;28;20450;-49
2021/12/08 03:24:33;;;;;;;2.80;1.70;;;;;;;;;;5042290;28;20532;-47
2021/12/08 03:27:17;;;;;;;2.60;2.20;;;;;;;;;;5031728;28;20549;-50
2021/12/08 03:32:31;;;;;;;4.07;2.57;;;;;;;;;;5045207;28;21394;-49
2021/12/08 03:35:05;;;;;;;2.73;1.90;;;;;;;;;;5042284;28;20443;-49
2021/12/08 03:37:33;;;;;;;10.03;3.03;;;;;;;;;;5038288;28;20856;-50
2021/12/08 03:39:59;;;;;;;5.77;2.60;;;;;;;;;;5042273;28;20431;-49
2021/12/08 03:42:26;;;;;;;2.00;1.50;;;;;;;;;;5042397;28;20454;-49
2021/12/08 03:44:55;;;;;;;3.40;2.27;;;;;;;;;;5042885;28;20466;-49
2021/12/08 03:47:26;;;;;;;2.93;2.27;;;;;;;;;;5016590;28;21620;-47
2021/12/08 03:49:53;;;;;;;4.03;2.10;;;;;;;;;;5038341;28;20430;-49
2021/12/08 03:52:19;;;;;;;3.70;2.37;;;;;;;;;;5035056;28;20470;-48
2021/12/08 03:54:45;;;;;;;2.93;2.67;;;;;;;;;;5040785;28;20465;-47
2021/12/08 03:57:11;;;;;;;3.70;2.10;;;;;;;;;;5039235;28;20484;-49
2021/12/08 03:59:37;;;;;;;3.70;1.90;;;;;;;;;;5040791;28;20426;-50
2021/12/08 04:02:04;;;;;;;6.90;2.60;;;;;;;;;;5030615;28;20509;-49
2021/12/08 04:04:40;;;;;;;3.17;2.43;;;;;;;;;;5025343;28;20514;-49
2021/12/08 04:07:08;;;;;;;2.47;2.17;;;;;;;;;;5019499;28;20450;-48
2021/12/08 04:09:40;;;;;;;3.67;2.70;;;;;;;;;;5034164;28;20457;-48
2021/12/08 04:12:16;;;;;;;3.20;2.90;;;;;;;;;;5025756;28;20513;-51
2021/12/08 04:14:51;;;;;;;2.80;2.47;;;;;;;;;;5037375;28;20443;-49
2021/12/08 04:17:28;;;;;;;5.10;2.60;;;;;;;;;;5023435;28;20537;-48
2021/12/08 04:19:57;;;;;;;3.60;2.67;;;;;;;;;;5039576;28;20508;-49
2021/12/08 04:22:36;;;;;;;2.97;2.60;;;;;;;;;;5016847;28;20469;-49
2021/12/08 04:25:09;;;;;;;6.17;3.37;;;;;;;;;;5036142;28;20580;-49
2021/12/08 04:27:36;;;;;;;3.63;2.43;;;;;;;;;;5022775;28;20443;-47
2021/12/08 04:30:04;;;;;;;6.70;3.20;;;;;;;;;;5041204;28;20578;-49
2021/12/08 04:32:39;;;;;;;4.57;2.57;;;;;;;;;;5027274;28;20442;-50
2021/12/08 04:35:09;;;;;;;6.77;2.90;;;;;;;;;;5041255;28;20448;-49
2021/12/08 04:37:36;;;;;;;3.90;2.90;;;;;;;;;;5013207;28;20542;-48
2021/12/08 04:40:20;;;;;;;5.43;3.47;;;;;;;;;;5039929;28;20457;-48
2021/12/08 04:43:10;;;;;;;11.80;4.80;;;;;;;;;;5041091;28;20445;-48
2021/12/08 04:45:47;;;;;;;7.07;4.00;;;;;;;;;;5043739;28;20426;-48
2021/12/08 05:04:25;;;;;;;6.10;5.20;;;;;;;;;;5024993;28;20485;-50
2021/12/08 05:07:32;;;;;;;13.47;4.60;;;;;;;;;;5031783;28;20548;-49
2021/12/08 05:10:04;;;;;;;6.43;4.20;;;;;;;;;;5035355;28;21038;-52
2021/12/08 05:12:32;;;;;;;5.70;4.17;;;;;;;;;;5021957;28;20428;-48
2021/12/08 05:15:15;;;;;;;6.17;4.20;;;;;;;;;;5041485;28;20688;-49
2021/12/08 05:17:52;;;;;;;5.23;4.67;;;;;;;;;;5033860;28;20517;-49
2021/12/08 05:20:18;;;;;;;5.13;3.90;;;;;;;;;;5034985;28;20445;-48
2021/12/08 05:22:46;;;;;;;4.63;4.03;;;;;;;;;;5034329;28;20442;-48
2021/12/08 05:25:16;;;;;;;5.63;4.20;;;;;;;;;;5033888;28;20450;-49
2021/12/08 05:27:44;;;;;;;6.63;3.73;;;;;;;;;;5019771;28;20525;-47
2021/12/08 05:30:12;;;;;;;6.60;4.80;;;;;;;;;;5042318;28;20438;-48
2021/12/08 05:32:38;;;;;;;5.30;4.80;;;;;;;;;;5038209;28;20457;-48
2021/12/08 05:35:07;;;;;;;5.87;4.27;;;;;;;;;;5042205;28;20565;-48
2021/12/08 05:37:38;;;;;;;5.87;4.63;;;;;;;;;;5019129;28;20438;-48
2021/12/08 05:40:05;;;;;;;5.17;4.10;;;;;;;;;;5024620;28;20442;-48
2021/12/08 05:42:33;;;;;;;5.20;4.70;;;;;;;;;;5031145;28;20979;-48
2021/12/08 05:44:59;;;;;;;4.30;3.37;;;;;;;;;;5016942;28;20438;-48
2021/12/08 05:47:40;;;;;;;5.40;4.40;;;;;;;;;;5044676;28;20473;-49
2021/12/08 05:50:11;;;;;;;6.97;5.00;;;;;;;;;;5035414;28;20535;-48
2021/12/08 05:52:38;;;;;;;9.37;4.93;;;;;;;;;;5043202;28;20989;-49
2021/12/08 05:55:06;;;;;;;7.00;4.97;;;;;;;;;;5041143;28;20454;-49
2021/12/08 05:57:41;;;;;;;6.50;4.20;;;;;;;;;;5041292;28;20461;-49
2021/12/08 06:00:14;;;;;;;7.63;5.10;;;;;;;;;;5032196;28;20468;-48
2021/12/08 06:02:40;;;;;;;4.97;4.43;;;;;;;;;;5049324;28;20431;-48
2021/12/08 06:05:06;;;;;;;5.13;3.97;;;;;;;;;;5038870;28;20461;-47
2021/12/08 06:07:32;;;;;;;8.57;4.63;;;;;;;;;;5046133;28;20480;-49
2021/12/08 06:09:59;;;;;;;10.63;6.80;;;;;;;;;;5030231;28;20438;-47
2021/12/08 06:12:25;;;;;;;6.40;5.20;;;;;;;;;;5038398;28;20450;-49
2021/12/08 06:15:06;;;;;;;9.50;4.53;;;;;;;;;;5016312;28;20457;-49
2021/12/08 06:17:33;;;;;;;5.40;4.40;;;;;;;;;;5043124;28;20538;-48
2021/12/08 06:20:00;;;;;;;6.30;4.30;;;;;;;;;;5036788;28;20461;-49
2021/12/08 06:22:26;;;;;;;7.27;4.63;;;;;;;;;;5034737;28;20529;-47
2021/12/08 06:24:52;;;;;;;7.13;5.23;;;;;;;;;;5041576;28;20539;-46
2021/12/08 06:27:18;;;;;;;6.43;4.77;;;;;;;;;;5038919;28;20450;-49
2021/12/08 06:29:45;;;;;;;5.13;4.43;;;;;;;;;;5016827;28;20952;-48
2021/12/08 06:32:11;;;;;;;5.50;4.80;;;;;;;;;;5057906;28;20935;-50
2021/12/08 06:34:42;;;;;;;7.27;5.03;;;;;;;;;;5041749;28;20435;-49
2021/12/08 06:37:18;;;;;;;7.17;5.40;;;;;;;;;;5011254;28;20451;-49
2021/12/08 06:39:46;;;;;;;5.97;5.37;;;;;;;;;;5041553;28;20484;-48
2021/12/08 06:42:16;;;;;;;7.30;4.47;;;;;;;;;;5020194;28;20945;-47
2021/12/08 06:44:47;;;;;;;4.97;4.47;;;;;;;;;;5042632;28;20482;-50
2021/12/08 06:47:16;;;;;;;7.43;5.10;;;;;;;;;;5000372;28;20449;-49
2021/12/08 06:49:44;;;;;;;6.60;4.83;;;;;;;;;;5033871;28;20443;-49
2021/12/08 06:52:16;;;;;;;8.00;4.23;;;;;;;;;;5045731;28;20483;-48
2021/12/08 06:54:51;;;;;;;5.83;5.23;;;;;;;;;;5043429;28;20446;-50
2021/12/08 06:57:21;;;;;;;6.33;4.40;;;;;;;;;;5046118;28;20523;-49
2021/12/08 07:00:00;;;;;;;5.03;4.40;;;;;;;;;;5022192;28;20434;-49
2021/12/08 07:05:12;;;;;;;5.40;4.83;;;;;;;;;;5044129;28;20469;-49
2021/12/08 07:07:39;;;;;;;7.80;5.20;;;;;;;;;;5029687;28;21574;-50
2021/12/08 07:10:07;;;;;;;7.87;4.70;;;;;;;;;;5041929;28;20447;-49
2021/12/08 07:12:37;;;;;;;7.90;5.77;;;;;;;;;;5014560;28;21723;-48
2021/12/08 07:15:11;;;;;;;6.17;4.53;;;;;;;;;;5041187;28;20497;-50
2021/12/08 07:17:40;;;;;;;8.60;3.63;;;;;;;;;;5011721;28;21245;-51
2021/12/08 07:20:34;;;;;;;7.07;4.30;;;;;;;;;;5044294;28;20530;-50
2021/12/08 07:23:00;;;;;;;6.43;4.80;;;;;;;;;;5017958;28;20466;-50
2021/12/08 07:25:27;;;;;;;4.53;4.13;;;;;;;;;;5043365;28;20461;-48
2021/12/08 07:27:53;;;;;;;6.93;4.77;;;;;;;;;;5042176;28;20462;-50
2021/12/08 07:30:21;;;;;;;5.67;4.60;;;;;;;;;;5045736;28;20453;-49
2021/12/08 07:32:47;;;;;;;6.90;5.10;;;;;;;;;;5032768;28;20623;-49
2021/12/08 07:35:15;;;;;;;7.23;4.60;;;;;;;;;;5041551;28;20434;-48
2021/12/08 07:37:41;;;;;;;7.07;4.70;;;;;;;;;;5027886;28;20467;-49
2021/12/08 07:40:07;;;;;;;7.17;5.63;;;;;;;;;;5046914;28;20576;-53
2021/12/08 07:42:37;;;;;;;7.07;4.37;;;;;;;;;;5022756;28;21462;-50
2021/12/08 07:45:06;;;;;;;8.10;6.57;;;;;;;;;;5054973;28;20442;-49
2021/12/08 07:47:32;;;;;;;6.80;4.97;;;;;;;;;;5019928;28;20457;-48
2021/12/08 07:50:07;;;;;;;7.53;5.67;;;;;;;;;;5038006;28;20653;-50
2021/12/08 07:52:49;;;;;;;10.03;4.77;;;;;;;;;;5026328;28;20913;-51
2021/12/08 07:55:17;;;;;;;8.33;4.10;;;;;;;;;;5013076;28;20534;-50
2021/12/08 07:57:43;;;;;;;4.70;3.80;;;;;;;;;;5037090;28;20425;-50
2021/12/08 08:00:14;;;;;;;8.03;4.80;;;;;;;;;;5022096;28;21252;-48
2021/12/08 08:02:40;;;;;;;4.10;3.70;;;;;;;;;;5036637;28;20439;-47
2021/12/08 08:05:08;;;;;;;5.60;3.83;;;;;;;;;;5016297;28;20481;-48
2021/12/08 08:07:35;;;;;;;7.57;5.03;;;;;;;;;;5035678;28;20430;-49
2021/12/08 08:10:02;;;;;;;6.10;4.87;;;;;;;;;;5017722;28;20470;-48
2021/12/08 08:12:30;;;;;;;5.87;4.77;;;;;;;;;;5041938;28;20596;-47
2021/12/08 08:15:22;;;;;;;8.03;4.60;;;;;;;;;;5008797;28;20880;-50
2021/12/08 08:17:51;;;;;;;6.20;4.83;;;;;;;;;;5041471;28;20435;-49
2021/12/08 08:20:32;;;;;;;8.30;4.13;;;;;;;;;;5011721;28;20459;-50
2021/12/08 08:22:58;;;;;;;4.80;3.93;;;;;;;;;;5051181;28;20831;-54
2021/12/08 08:25:25;;;;;;;8.73;4.93;;;;;;;;;;5005473;28;20446;-49
2021/12/08 08:27:51;;;;;;;3.93;3.53;;;;;;;;;;5044499;28;20916;-51
2021/12/08 08:30:22;;;;;;;5.00;3.67;;;;;;;;;;5023495;28;20523;-49
2021/12/08 08:32:49;;;;;;;6.07;4.20;;;;;;;;;;5042375;28;20418;-50
2021/12/08 08:35:15;;;;;;;4.90;3.93;;;;;;;;;;5020450;28;20434;-50
2021/12/08 08:37:48;;;;;;;4.77;4.30;;;;;;;;;;5045876;28;20928;-51
2021/12/08 08:40:24;;;;;;;4.27;3.87;;;;;;;;;;5019114;28;20439;-49
2021/12/08 08:42:51;;;;;;;6.40;4.10;;;;;;;;;;5039084;28;20923;-51
2021/12/08 08:45:20;;;;;;;3.77;3.40;;;;;;;;;;5041517;28;20542;-55
2021/12/08 08:47:48;;;;;;;7.00;4.13;;;;;;;;;;5043415;28;20453;-48
2021/12/08 08:50:16;;;;;;;3.80;3.20;;;;;;;;;;5022762;28;21086;-51
2021/12/08 08:52:44;;;;;;;4.17;3.40;;;;;;;;;;5041589;28;20434;-49
2021/12/08 08:55:12;;;;;;;4.03;3.20;;;;;;;;;;4997410;28;20451;-49
2021/12/08 08:57:39;;;;;;;6.77;3.83;;;;;;;;;;5041127;28;20438;-50
2021/12/08 09:00:05;;;;;;;3.83;3.20;;;;;;;;;;5029980;28;20462;-49
2021/12/08 09:02:37;;;;;;;5.27;3.80;;;;;;;;;;5041532;28;20437;-49
2021/12/08 09:05:05;;;;;;;4.50;3.20;;;;;;;;;;5046595;28;20470;-50
2021/12/08 09:07:33;;;;;;;4.40;3.43;;;;;;;;;;5029620;28;20438;-49
2021/12/08 09:10:03;;;;;;;3.50;3.03;;;;;;;;;;5046211;28;20537;-49
2021/12/08 09:12:31;;;;;;;4.70;3.20;;;;;;;;;;4999396;28;20434;-49
2021/12/08 09:15:04;;;;;;;4.60;3.30;;;;;;;;;;5044291;28;20426;-49
2021/12/08 09:17:31;;;;;;;3.97;3.43;;;;;;;;;;5019968;28;20461;-50
2021/12/08 09:20:04;;;;;;;4.90;3.10;;;;;;;;;;5046702;28;20851;-49
2021/12/08 09:22:35;;;;;;;4.93;2.93;;;;;;;;;;5024012;28;20462;-50
2021/12/08 09:25:08;;;;;;;3.50;3.17;;;;;;;;;;5045138;28;20486;-48
2021/12/08 09:27:38;;;;;;;3.93;2.80;;;;;;;;;;5008928;28;20419;-49
2021/12/08 09:30:09;;;;;;;3.30;3.00;;;;;;;;;;5049683;28;20464;-50
2021/12/08 09:32:39;;;;;;;4.03;3.07;;;;;;;;;;5013955;28;20444;-49
2021/12/08 09:35:11;;;;;;;3.73;3.20;;;;;;;;;;5039618;28;20728;-48
2021/12/08 09:37:40;;;;;;;6.03;3.53;;;;;;;;;;5040703;28;20776;-49
2021/12/08 09:40:06;;;;;;;4.00;3.33;;;;;;;;;;5041362;28;20616;-49
2021/12/08 09:42:37;;;;;;;5.40;3.93;;;;;;;;;;5023032;28;20469;-49
2021/12/08 09:45:10;;;;;;;7.03;3.30;;;;;;;;;;5043895;28;20474;-50
2021/12/08 09:47:36;;;;;;;5.23;4.70;;;;;;;;;;5022104;28;20508;-49
2021/12/08 09:50:04;;;;;;;4.40;4.00;;;;;;;;;;5050475;28;20490;-49
2021/12/08 09:52:31;;;;;;;5.70;4.30;;;;;;;;;;5017223;28;20456;-49
2021/12/08 09:54:57;;;;;;;4.23;3.17;;;;;;;;;;5040761;28;20468;-48
2021/12/08 09:57:24;;;;;;;4.90;4.07;;;;;;;;;;5022854;28;20486;-48
2021/12/08 09:59:50;;;;;;;4.47;3.90;;;;;;;;;;5045980;28;20791;-48
2021/12/08 10:02:24;;;;;;;7.90;7.30;;;;;;;;;;5012202;28;21130;-49
2021/12/08 10:04:50;;;;;;;5.20;4.47;;;;;;;;;;5038825;28;20962;-49
2021/12/08 10:07:16;;;;;;;3.97;3.60;;;;;;;;;;5015253;28;20952;-49
2021/12/08 10:09:42;;;;;;;4.10;3.00;;;;;;;;;;5039450;28;21654;-49
2021/12/08 10:12:08;;;;;;;3.37;3.07;;;;;;;;;;5014212;28;20483;-50
2021/12/08 10:14:35;;;;;;;4.50;3.90;;;;;;;;;;5030799;28;20522;-51
2021/12/08 10:17:01;;;;;;;3.73;3.13;;;;;;;;;;5041081;28;20439;-49
2021/12/08 10:19:29;;;;;;;4.00;2.47;;;;;;;;;;5045535;28;20531;-51
2021/12/08 10:21:59;;;;;;;6.93;4.13;;;;;;;;;;5019107;28;22988;-49
2021/12/08 10:24:36;;;;;;;6.30;3.00;;;;;;;;;;5040050;28;20542;-51
2021/12/08 10:27:05;;;;;;;6.00;4.17;;;;;;;;;;5021852;28;20438;-49
2021/12/08 10:29:32;;;;;;;8.73;6.40;;;;;;;;;;5035448;28;20498;-49
2021/12/08 10:31:59;;;;;;;6.57;4.33;;;;;;;;;;5025001;28;20462;-49
2021/12/08 10:34:31;;;;;;;6.83;4.50;;;;;;;;;;5033991;28;20438;-52
2021/12/08 10:37:01;;;;;;;5.33;3.63;;;;;;;;;;5010352;28;20761;-50
2021/12/08 10:39:31;;;;;;;5.40;4.77;;;;;;;;;;5033478;28;20567;-48
2021/12/08 10:42:07;;;;;;;11.60;8.20;;;;;;;;;;5042102;28;20442;-49
2021/12/08 10:44:52;;;;;;;5.20;4.67;;;;;;;;;;5030670;28;20489;-50
2021/12/08 10:47:22;;;;;;;3.80;3.50;;;;;;;;;;5040875;28;20620;-49
2021/12/08 10:55:25;;;;;;;3.87;3.07;;;;;;;;;;4992370;28;20514;-49
2021/12/08 10:57:53;;;;;;;4.30;3.67;;;;;;;;;;5044012;28;20863;-48
2021/12/08 11:00:27;;;;;;;2.97;2.20;;;;;;;;;;5023921;28;20447;-50
2021/12/08 11:02:53;;;;;;;3.57;2.70;;;;;;;;;;5043279;28;20422;-50
2021/12/08 11:05:25;;;;;;;3.60;2.90;;;;;;;;;;5037881;28;20437;-49
2021/12/08 11:08:02;;;;;;;10.73;3.30;;;;;;;;;;5041800;28;20449;-48
2021/12/08 11:10:29;;;;;;;3.30;2.70;;;;;;;;;;4997898;28;20458;-50
2021/12/08 11:12:57;;;;;;;3.83;2.90;;;;;;;;;;5045104;28;20431;-49
2021/12/08 11:15:24;;;;;;;4.07;2.60;;;;;;;;;;5014401;28;20455;-48
2021/12/08 11:18:09;;;;;;;3.57;3.13;;;;;;;;;;5044836;28;20426;-50
2021/12/08 11:20:40;;;;;;;3.47;2.77;;;;;;;;;;5025030;28;20500;-50
2021/12/08 11:23:10;;;;;;;2.20;2.00;;;;;;;;;;5042555;28;20558;-48
2021/12/08 11:25:40;;;;;;;4.17;3.07;;;;;;;;;;5042375;28;20453;-49
2021/12/08 11:28:23;;;;;;;2.83;2.50;;;;;;;;;;5043933;28;20505;-49
2021/12/08 11:30:50;;;;;;;3.67;3.37;;;;;;;;;;5017144;28;20465;-49
2021/12/08 11:33:18;;;;;;;4.30;2.60;;;;;;;;;;5013605;28;20441;-48
2021/12/08 11:35:45;;;;;;;4.57;2.47;;;;;;;;;;5015003;28;20457;-49
2021/12/08 11:38:11;;;;;;;3.10;2.43;;;;;;;;;;5035305;28;21030;-51
2021/12/08 11:40:38;;;;;;;3.10;2.80;;;;;;;;;;5044522;28;20446;-49
2021/12/08 11:43:04;;;;;;;3.80;3.50;;;;;;;;;;5008771;28;20521;-50
2021/12/08 11:45:39;;;;;;;5.40;4.83;;;;;;;;;;5040966;28;20504;-50
2021/12/08 11:48:20;;;;;;;3.50;2.57;;;;;;;;;;5029008;28;20445;-48
2021/12/08 11:50:46;;;;;;;4.20;2.80;;;;;;;;;;5042060;28;20505;-50
2021/12/08 11:53:19;;;;;;;3.40;2.73;;;;;;;;;;5023333;28;20442;-50
2021/12/08 11:55:45;;;;;;;3.60;2.77;;;;;;;;;;5042473;28;20865;-49
2021/12/08 11:58:11;;;;;;;3.60;2.73;;;;;;;;;;5035011;28;20474;-48
2021/12/08 12:00:40;;;;;;;5.67;3.40;;;;;;;;;;5034152;28;20506;-48
2021/12/08 12:03:15;;;;;;;6.07;3.43;;;;;;;;;;5025784;28;20474;-50
2021/12/08 12:05:41;;;;;;;2.80;2.60;;;;;;;;;;5039158;28;21271;-48
2021/12/08 12:08:09;;;;;;;3.47;2.90;;;;;;;;;;5033905;28;20430;-49
2021/12/08 12:10:45;;;;;;;5.67;3.97;;;;;;;;;;5045949;28;21045;-51
2021/12/08 12:13:14;;;;;;;4.97;3.53;;;;;;;;;;5022931;28;20446;-50
2021/12/08 12:15:47;;;;;;;3.83;3.43;;;;;;;;;;5044274;28;20442;-49
2021/12/08 12:18:38;;;;;;;6.43;3.20;;;;;;;;;;5027801;28;20732;-50
2021/12/08 12:21:11;;;;;;;4.23;3.30;;;;;;;;;;5038884;28;20443;-50
2021/12/08 12:24:13;;;;;;;3.53;2.63;;;;;;;;;;5015241;28;20552;-49
2021/12/08 12:26:39;;;;;;;3.70;2.90;;;;;;;;;;5020459;28;20447;-49
2021/12/08 12:29:38;;;;;;;7.20;5.07;;;;;;;;;;5031562;28;20431;-50
2021/12/08 12:32:17;;;;;;;3.90;3.60;;;;;;;;;;5019190;28;20767;-48
2021/12/08 12:34:43;;;;;;;7.60;4.00;;;;;;;;;;5012807;28;20530;-49
2021/12/08 12:37:17;;;;;;;4.60;3.10;;;;;;;;;;5040625;28;20492;-48
2021/12/08 12:39:47;;;;;;;4.57;3.50;;;;;;;;;;5036120;28;20426;-55
2021/12/08 12:42:15;;;;;;;4.40;2.40;;;;;;;;;;5041956;28;20525;-47
2021/12/08 12:44:45;;;;;;;4.47;3.80;;;;;;;;;;5014816;28;20482;-50
2021/12/08 12:47:21;;;;;;;5.67;4.97;;;;;;;;;;5033676;28;20538;-50
2021/12/08 12:50:07;;;;;;;4.80;4.27;;;;;;;;;;4988510;28;20450;-49
2021/12/08 12:52:44;;;;;;;3.40;2.83;;;;;;;;;;5000559;28;20449;-50
2021/12/08 12:55:18;;;;;;;4.70;3.73;;;;;;;;;;5039887;28;20421;-51
2021/12/08 12:58:06;;;;;;;6.07;3.93;;;;;;;;;;5014672;28;20442;-50
2021/12/08 13:00:39;;;;;;;4.20;3.37;;;;;;;;;;5035094;28;20534;-50
2021/12/08 13:03:06;;;;;;;5.50;4.20;;;;;;;;;;5024228;28;20430;-49
2021/12/08 13:05:54;;;;;;;4.60;3.87;;;;;;;;;;5038768;28;20438;-49
2021/12/08 13:08:40;;;;;;;6.90;5.17;;;;;;;;;;5016994;28;20525;-49
2021/12/08 13:11:47;;;;;;;5.67;4.67;;;;;;;;;;5039229;28;20434;-49
2021/12/08 13:14:21;;;;;;;5.50;4.40;;;;;;;;;;5037839;28;20484;-49
2021/12/08 13:16:47;;;;;;;8.37;5.13;;;;;;;;;;5040622;28;21191;-48
2021/12/08 13:19:26;;;;;;;5.80;4.33;;;;;;;;;;5019566;28;20793;-50
2021/12/08 13:21:58;;;;;;;5.43;4.67;;;;;;;;;;5039199;28;20460;-49
2021/12/08 13:24:37;;;;;;;4.00;3.60;;;;;;;;;;5026589;28;20492;-50
2021/12/08 13:27:05;;;;;;;9.93;4.50;;;;;;;;;;5039551;28;20450;-48
2021/12/08 13:29:33;;;;;;;6.63;4.67;;;;;;;;;;5041672;28;20430;-50
2021/12/08 13:32:09;;;;;;;4.57;4.17;;;;;;;;;;5032608;28;20533;-49
2021/12/08 13:34:57;;;;;;;4.73;4.23;;;;;;;;;;5031736;28;20499;-50
2021/12/08 13:37:35;;;;;;;9.60;5.10;;;;;;;;;;5023296;28;20435;-50
2021/12/08 13:40:09;;;;;;;5.03;3.97;;;;;;;;;;5025689;28;20501;-50
2021/12/08 13:43:05;;;;;;;5.10;4.00;;;;;;;;;;5034180;28;20542;-50
2021/12/08 13:45:43;;;;;;;5.17;3.43;;;;;;;;;;5033901;28;20442;-49
2021/12/08 13:48:31;;;;;;;4.33;3.87;;;;;;;;;;5029060;28;20430;-49
2021/12/08 13:51:16;;;;;;;5.63;4.50;;;;;;;;;;5033679;28;20430;-49
2021/12/08 13:53:48;;;;;;;4.70;3.97;;;;;;;;;;4993830;28;21445;-49
2021/12/08 13:56:20;;;;;;;6.00;5.10;;;;;;;;;;5041030;28;20611;-49
2021/12/08 13:58:46;;;;;;;5.50;4.73;;;;;;;;;;5023681;28;20523;-48
2021/12/08 14:01:17;;;;;;;7.00;4.70;;;;;;;;;;5044442;28;20513;-49
2021/12/08 14:03:55;;;;;;;5.87;4.13;;;;;;;;;;5022918;28;20481;-52
2021/12/08 14:06:25;;;;;;;8.80;5.03;;;;;;;;;;5039719;28;20449;-50
2021/12/08 14:08:55;;;;;;;6.33;5.13;;;;;;;;;;5028969;28;20959;-50
2021/12/08 14:11:23;;;;;;;8.90;5.17;;;;;;;;;;5035175;28;20813;-50
2021/12/08 14:13:49;;;;;;;5.20;4.60;;;;;;;;;;5016734;28;20435;-49
2021/12/08 14:16:22;;;;;;;4.63;4.10;;;;;;;;;;5045992;28;20438;-49
2021/12/08 14:19:03;;;;;;;4.90;3.80;;;;;;;;;;5024332;28;20450;-50
2021/12/08 14:21:35;;;;;;;5.95;4.53;;;;;;;;;;5025191;28;20444;-49
2021/12/08 14:24:05;;;;;;;5.70;5.03;;;;;;;;;;5025082;28;20204;-50
2021/12/08 14:26:32;;;;;;;6.00;4.40;;;;;;;;;;5031456;28;20430;-50
2021/12/08 14:29:10;;;;;;;8.20;4.80;;;;;;;;;;5026285;28;20442;-51
2021/12/08 14:31:40;;;;;;;6.30;4.63;;;;;;;;;;5033659;28;20504;-50
2021/12/08 14:34:06;;;;;;;11.13;5.77;;;;;;;;;;5008480;28;21258;-49
2021/12/08 14:36:39;;;;;;;6.40;4.70;;;;;;;;;;5034749;28;20445;-51
2021/12/08 14:39:06;;;;;;;5.07;4.23;;;;;;;;;;5016835;28;20453;-51
2021/12/08 14:41:33;;;;;;;6.77;5.87;;;;;;;;;;5038692;28;20422;-50
2021/12/08 14:44:13;;;;;;;6.90;5.60;;;;;;;;;;5026939;28;20573;-50
2021/12/08 14:46:45;;;;;;;6.70;4.93;;;;;;;;;;5026922;28;20446;-50
2021/12/08 14:49:14;;;;;;;6.53;5.70;;;;;;;;;;5025753;28;20422;-49
2021/12/08 14:51:47;;;;;;;6.80;4.97;;;;;;;;;;5051107;28;20456;-51
2021/12/08 14:54:20;;;;;;;7.93;4.87;;;;;;;;;;5035611;28;20430;-49
2021/12/08 14:57:01;;;;;;;6.63;5.30;;;;;;;;;;5036146;28;20513;-50
2021/12/08 14:59:27;;;;;;;7.30;5.50;;;;;;;;;;5058511;28;20437;-50
2021/12/08 15:01:56;;;;;;;10.00;5.60;;;;;;;;;;5032568;28;20532;-50
2021/12/08 15:04:22;;;;;;;7.27;4.50;;;;;;;;;;5042767;28;20528;-48
2021/12/08 15:07:03;;;;;;;6.57;4.43;;;;;;;;;;5022161;28;20499;-48
2021/12/08 15:09:29;;;;;;;8.57;5.40;;;;;;;;;;5027721;28;20441;-48
2021/12/08 15:12:08;;;;;;;7.43;5.23;;;;;;;;;;5018154;28;21086;-50
2021/12/08 15:14:39;;;;;;;8.90;6.37;;;;;;;;;;5043084;28;20475;-49
2021/12/08 15:17:05;;;;;;;6.80;5.37;;;;;;;;;;5032196;28;20439;-50
2021/12/08 15:19:32;;;;;;;5.83;5.20;;;;;;;;;;5038310;28;20454;-48
2021/12/08 15:22:05;;;;;;;8.43;5.80;;;;;;;;;;5019376;28;20446;-48
2021/12/08 15:24:41;;;;;;;8.17;6.10;;;;;;;;;;5033892;28;20990;-51
2021/12/08 15:27:11;;;;;;;10.50;5.90;;;;;;;;;;5036882;28;20979;-49
2021/12/08 15:29:41;;;;;;;8.80;5.97;;;;;;;;;;5038836;28;20493;-50
2021/12/08 15:32:11;;;;;;;8.37;6.10;;;;;;;;;;5015759;28;21150;-49
2021/12/08 15:34:37;;;;;;;9.03;5.53;;;;;;;;;;5039020;28;20979;-47
2021/12/08 15:37:05;;;;;;;9.07;6.00;;;;;;;;;;5019875;28;21296;-48
2021/12/08 15:39:32;;;;;;;13.43;7.30;;;;;;;;;;5046407;28;20433;-48
2021/12/08 15:41:59;;;;;;;9.77;6.50;;;;;;;;;;5023713;28;21369;-50
2021/12/08 15:44:25;;;;;;;10.47;7.90;;;;;;;;;;5046063;28;20474;-49
2021/12/08 15:46:56;;;;;;;9.70;7.80;;;;;;;;;;5030793;28;20815;-50
2021/12/08 15:49:27;;;;;;;14.77;10.30;;;;;;;;;;5045599;28;21182;-50